createdAt,value
2023-02-05T00:00:56.638Z,100468.13
2023-02-05T00:05:59.332Z,100467.13
2023-02-05T00:11:07.582Z,100444.19
2023-02-05T00:16:13.797Z,100442.56
2023-02-05T00:21:18.731Z,100436.53
2023-02-05T00:26:21.857Z,100434.63
2023-02-05T00:31:26.737Z,100434.63
2023-02-05T00:36:29.564Z,100425.72
2023-02-05T00:41:32.342Z,100415.06
2023-02-05T00:46:37.015Z,100392.19
2023-02-05T00:51:39.704Z,100395.56
2023-02-05T00:56:42.543Z,100392.88
2023-02-05T01:01:47.096Z,100380.56
2023-02-05T01:06:49.912Z,100384.00
2023-02-05T01:11:53.012Z,100371.63
2023-02-05T01:16:57.160Z,100368.00
2023-02-05T01:21:59.873Z,100361.75
2023-02-05T01:27:02.658Z,100374.78
2023-02-05T01:32:06.940Z,100352.75
2023-02-05T01:37:09.734Z,100342.91
2023-02-05T01:42:19.044Z,100350.78
2023-02-05T01:47:23.212Z,100343.66
2023-02-05T01:52:26.380Z,100333.00
2023-02-05T01:57:29.524Z,100330.19
2023-02-05T02:02:35.700Z,100329.25
2023-02-05T02:07:38.569Z,100319.50
2023-02-05T02:12:44.994Z,100315.88
2023-02-05T02:17:54.024Z,100311.41
2023-02-05T02:23:10.048Z,100292.91
2023-02-05T02:28:19.933Z,100278.19
2023-02-05T02:33:28.474Z,100278.00
2023-02-05T02:38:34.784Z,100282.19
2023-02-05T02:43:47.988Z,100283.03
2023-02-05T02:48:53.887Z,100282.94
2023-02-05T02:53:58.951Z,100293.38
2023-02-05T02:59:07.265Z,100273.25
2023-02-05T03:04:15.930Z,100274.94
2023-02-05T03:09:26.085Z,100270.50
2023-02-05T03:14:30.309Z,100262.63
2023-02-05T03:19:34.836Z,100266.94
2023-02-05T03:24:38.027Z,100274.78
2023-02-05T03:29:45.461Z,100280.84
2023-02-05T03:35:02.417Z,100285.16
2023-02-05T03:40:14.952Z,100288.84
2023-02-05T03:45:44.485Z,100277.59
2023-02-05T03:50:54.046Z,100280.41
2023-02-05T03:56:06.512Z,100275.06
2023-02-05T04:01:12.571Z,100279.38
2023-02-05T04:06:17.230Z,100275.03
2023-02-05T04:11:22.991Z,100240.25
2023-02-05T04:16:28.480Z,100243.88
2023-02-05T04:21:32.547Z,100237.72
2023-02-05T04:26:35.983Z,100228.09
2023-02-05T04:31:43.086Z,100228.00
2023-02-05T04:36:48.519Z,100237.53
2023-02-05T04:41:51.878Z,100246.50
2023-02-05T04:46:55.925Z,100246.50
2023-02-05T04:51:58.661Z,100258.59
2023-02-05T04:57:01.426Z,100252.34
2023-02-05T05:02:05.775Z,100269.78
2023-02-05T05:07:09.414Z,100274.97
2023-02-05T05:12:12.156Z,100277.56
2023-02-05T05:17:16.326Z,100278.47
2023-02-05T05:22:19.440Z,100280.97
2023-02-05T05:27:23.175Z,100288.75
2023-02-05T05:32:27.277Z,100285.16
2023-02-05T05:37:29.998Z,100286.97
2023-02-05T05:42:50.440Z,100287.78
2023-02-05T05:47:54.725Z,100295.66
2023-02-05T05:52:57.424Z,100270.06
2023-02-05T05:58:00.148Z,100265.78
2023-02-05T06:03:04.937Z,100265.72
2023-02-05T06:08:08.172Z,100259.63
2023-02-05T06:13:11.137Z,100259.63
2023-02-05T06:18:15.527Z,100233.38
2023-02-05T06:23:18.449Z,100221.94
2023-02-05T06:28:21.228Z,100187.97
2023-02-05T06:33:25.333Z,100203.13
2023-02-05T06:38:28.042Z,100228.28
2023-02-05T06:43:30.781Z,100241.53
2023-02-05T06:48:34.888Z,100241.72
2023-02-05T06:53:37.747Z,100243.34
2023-02-05T06:58:40.510Z,100239.78
2023-02-05T07:03:44.625Z,100241.53
2023-02-05T07:08:47.818Z,100258.34
2023-02-05T07:13:50.687Z,100267.31
2023-02-05T07:18:54.895Z,100245.16
2023-02-05T07:23:57.732Z,100237.28
2023-02-05T07:29:00.581Z,100219.84
2023-02-05T07:34:04.938Z,100228.44
2023-02-05T07:39:07.770Z,100218.84
2023-02-05T07:44:10.495Z,100205.63
2023-02-05T07:49:14.533Z,100203.66
2023-02-05T07:54:17.277Z,100207.03
2023-02-05T07:59:20.136Z,100218.38
2023-02-05T08:04:24.307Z,100203.31
2023-02-05T08:09:27.125Z,100202.19
2023-02-05T08:14:31.180Z,100200.31
2023-02-05T08:19:35.512Z,100202.19
2023-02-05T08:24:38.349Z,100198.47
2023-02-05T08:29:41.116Z,100198.88
2023-02-05T08:34:45.257Z,100204.69
2023-02-05T08:39:49.418Z,100186.50
2023-02-05T08:44:52.686Z,100183.78
2023-02-05T08:49:56.845Z,100192.53
2023-02-05T08:54:59.714Z,100181.63
2023-02-05T09:00:03.519Z,100177.19
2023-02-05T09:05:09.968Z,100186.81
2023-02-05T09:10:13.942Z,100160.03
2023-02-05T09:15:16.708Z,100168.34
2023-02-05T09:20:21.027Z,100151.41
2023-02-05T09:25:23.898Z,100140.63
2023-02-05T09:30:26.656Z,100140.41
2023-02-05T09:35:32.453Z,100141.31
2023-02-05T09:40:40.236Z,100129.63
2023-02-05T09:45:54.263Z,100123.06
2023-02-05T09:50:59.490Z,100126.22
2023-02-05T09:56:04.597Z,100124.25
2023-02-05T10:01:13.525Z,100122.41
2023-02-05T10:06:41.864Z,100122.03
2023-02-05T10:11:51.647Z,100123.63
2023-02-05T10:17:08.705Z,100111.91
2023-02-05T10:22:20.036Z,100106.50
2023-02-05T10:27:24.970Z,100097.78
2023-02-05T10:32:39.983Z,100101.28
2023-02-05T10:37:47.916Z,100085.44
2023-02-05T10:42:55.254Z,100086.72
2023-02-05T10:48:06.811Z,100079.88
2023-02-05T10:53:10.940Z,100074.53
2023-02-05T10:58:29.790Z,100085.63
2023-02-05T11:03:33.045Z,100073.06
2023-02-05T11:08:43.725Z,100084.50
2023-02-05T11:13:52.499Z,100081.69
2023-02-05T11:19:01.474Z,100072.81
2023-02-05T11:24:06.876Z,100060.09
2023-02-05T11:29:20.814Z,100068.75
2023-02-05T11:34:23.724Z,100070.63
2023-02-05T11:39:36.033Z,100075.22
2023-02-05T11:44:48.332Z,100080.75
2023-02-05T11:49:52.297Z,100083.53
2023-02-05T11:54:57.295Z,100084.78
2023-02-05T12:00:02.217Z,100077.19
2023-02-05T12:05:19.780Z,100075.00
2023-02-05T12:10:32.245Z,100074.06
2023-02-05T12:15:42.649Z,100085.50
2023-02-05T12:20:52.763Z,100073.94
2023-02-05T12:26:09.618Z,100077.53
2023-02-05T12:31:24.906Z,100074.66
2023-02-05T12:36:45.380Z,100081.31
2023-02-05T12:41:59.095Z,100077.19
2023-02-05T12:47:15.121Z,100072.19
2023-02-05T12:52:30.168Z,100073.19
2023-02-05T12:57:41.832Z,100076.91
2023-02-05T13:02:53.892Z,100065.97
2023-02-05T13:08:02.329Z,100078.06
2023-02-05T13:13:12.484Z,100078.78
2023-02-05T13:18:21.677Z,100076.47
2023-02-05T13:23:42.840Z,100069.16
2023-02-05T13:28:48.891Z,100064.66
2023-02-05T13:33:52.801Z,100063.34
2023-02-05T13:39:12.981Z,100062.56
2023-02-05T13:44:49.824Z,100066.94
2023-02-05T13:50:03.322Z,100065.28
2023-02-05T13:55:27.775Z,100066.34
2023-02-05T14:00:33.055Z,100059.47
2023-02-05T14:05:39.395Z,100063.94
2023-02-05T14:10:45.820Z,100071.50
2023-02-05T14:15:50.615Z,100085.22
2023-02-05T14:20:53.430Z,100089.31
2023-02-05T14:26:11.887Z,100089.91
2023-02-05T14:31:53.435Z,100092.81
2023-02-05T14:36:57.994Z,100107.25
2023-02-05T14:42:05.175Z,100106.59
2023-02-05T14:47:10.354Z,100109.16
2023-02-05T14:52:28.416Z,100112.88
2023-02-05T14:57:41.437Z,100120.28
2023-02-05T15:03:31.754Z,100117.75
2023-02-05T15:08:44.622Z,100137.47
2023-02-05T15:14:21.200Z,100149.84
2023-02-05T15:19:24.161Z,100154.97
2023-02-05T15:24:31.734Z,100164.00
2023-02-05T15:29:41.522Z,100163.41
2023-02-05T15:34:47.725Z,100173.06
2023-02-05T15:39:55.323Z,100179.41
2023-02-05T15:44:58.394Z,100177.75
2023-02-05T15:50:02.341Z,100180.50
2023-02-05T15:55:14.924Z,100197.16
2023-02-05T16:00:23.478Z,100210.53
2023-02-05T16:05:27.588Z,100229.03
2023-02-05T16:10:34.300Z,100246.00
2023-02-05T16:15:40.876Z,100256.81
2023-02-05T16:20:48.145Z,100260.31
2023-02-05T16:25:56.824Z,100270.16
2023-02-05T16:31:01.412Z,100270.19
2023-02-05T16:36:07.743Z,100291.56
2023-02-05T16:41:23.448Z,100300.41
2023-02-05T16:46:28.754Z,100316.47
2023-02-05T16:51:56.502Z,100310.50
2023-02-05T16:57:05.394Z,100315.06
2023-02-05T17:02:23.336Z,100336.38
2023-02-05T17:07:27.208Z,100342.69
2023-02-05T17:12:47.553Z,100362.22
2023-02-05T17:17:52.686Z,100356.06
2023-02-05T17:23:11.944Z,100366.63
2023-02-05T17:28:19.302Z,100363.25
2023-02-05T17:33:24.942Z,100380.03
2023-02-05T17:38:28.507Z,100390.63
2023-02-05T17:43:32.584Z,100396.72
2023-02-05T17:48:36.066Z,100402.84
2023-02-05T17:53:38.968Z,100400.19
2023-02-05T17:58:43.132Z,100413.38
2023-02-05T18:03:46.544Z,100412.47
2023-02-05T18:08:49.302Z,100416.16
2023-02-05T18:13:53.776Z,100419.84
2023-02-05T18:18:56.547Z,100433.06
2023-02-05T18:23:59.321Z,100430.66
2023-02-05T18:29:03.433Z,100425.47
2023-02-05T18:34:06.529Z,100429.09
2023-02-05T18:39:10.463Z,100437.94
2023-02-05T18:44:16.005Z,100431.03
2023-02-05T18:49:18.796Z,100420.50
2023-02-05T18:54:21.543Z,100427.59
2023-02-05T18:59:25.687Z,100425.06
2023-02-05T19:04:32.900Z,100414.63
2023-02-05T19:09:35.810Z,100427.94
2023-02-05T19:14:40.337Z,100434.13
2023-02-05T19:19:43.273Z,100441.25
2023-02-05T19:24:46.209Z,100432.66
2023-02-05T19:29:50.396Z,100460.00
2023-02-05T19:34:54.809Z,100468.81
2023-02-05T19:39:57.687Z,100467.16
2023-02-05T19:45:01.830Z,100461.97
2023-02-05T19:50:04.688Z,100456.72
2023-02-05T19:55:08.448Z,100474.38
2023-02-05T20:00:13.951Z,100467.25
2023-02-05T20:05:16.786Z,100483.16
2023-02-05T20:10:20.166Z,100486.56
2023-02-05T20:15:24.617Z,100489.25
2023-02-05T20:20:33.486Z,100490.22
2023-02-05T20:25:36.433Z,100483.13
2023-02-05T20:31:00.236Z,100495.44
2023-02-05T20:36:07.676Z,100505.19
2023-02-05T20:41:15.370Z,100512.28
2023-02-05T20:46:19.656Z,100513.19
2023-02-05T20:51:24.658Z,100518.47
2023-02-05T20:56:30.788Z,100520.19
2023-02-05T21:01:39.841Z,100524.50
2023-02-05T21:06:42.794Z,100531.56
2023-02-05T21:11:45.585Z,100520.03
2023-02-05T21:16:49.717Z,100527.88
2023-02-05T21:21:52.509Z,100536.63
2023-02-05T21:26:56.721Z,100530.38
2023-02-05T21:32:00.840Z,100532.97
2023-02-05T21:37:03.616Z,100534.75
2023-02-05T21:42:06.410Z,100540.97
2023-02-05T21:47:10.449Z,100552.38
2023-02-05T21:52:13.256Z,100548.81
2023-02-05T21:57:16.056Z,100556.72
2023-02-05T22:02:20.153Z,100559.31
2023-02-05T22:07:22.911Z,100568.06
2023-02-05T22:12:25.839Z,100563.59
2023-02-05T22:17:29.933Z,100570.66
2023-02-05T22:22:32.743Z,100572.38
2023-02-05T22:27:35.586Z,100576.81
2023-02-05T22:32:39.748Z,100578.50
2023-02-05T22:37:42.473Z,100589.22
2023-02-05T22:42:45.174Z,100585.66
2023-02-05T22:47:49.253Z,100593.53
2023-02-05T22:52:52.001Z,100611.28
2023-02-05T22:57:54.778Z,100624.56
2023-02-05T23:02:59.189Z,100615.66
2023-02-05T23:08:02.316Z,100609.47
2023-02-05T23:13:05.162Z,100616.66
2023-02-05T23:18:09.267Z,100622.78
2023-02-05T23:23:12.011Z,100626.31
2023-02-05T23:28:14.796Z,100614.00
2023-02-05T23:33:19.051Z,100617.59
2023-02-05T23:38:24.961Z,100618.53
2023-02-05T23:43:28.121Z,100622.97
2023-02-05T23:48:32.431Z,100620.50
2023-02-05T23:53:35.209Z,100619.88
2023-02-05T23:58:37.981Z,100622.41
